AirNav   Textron
 
 353 users online  

69MO Hess-McKeown Airport
Higbee, Missouri, USA

GOING TO HIGBEE?


FAA INFORMATION EFFECTIVE 20 JULY 2017

Location

FAA Identifier: 69MO
Lat/Long: 39-18-30.1330N / 092-27-14.6470W
39-18.502217N / 092-27.244117W
39.3083703 / -92.4540686
(estimated)
Elevation: 885 ft. / 270 m (estimated)
Variation: 03E (1985)
From city: 3 miles E of HIGBEE, MO
Time zone: UTC -5 (UTC -6 during Standard Time)
Zip code: 65257

Airport Operations

Airport use: Private use. Permission required prior to landing
Activation date: 04/1982
Control tower: no
ARTCC: KANSAS CITY CENTER
FSS: COLUMBIA FLIGHT SERVICE STATION
Attendance: UNATNDD
Wind indicator: yes
Segmented circle: no

Airport Communications

WX AWOS-3P at MBY (9 nm N): 120.025 (660-269-8028)
  • MULTICOM FREQ 122.9.

Nearby radio navigation aids

VOR radial/distance  VOR name  Freq  Var
HLVr302/19.1HALLSVILLE VORTAC114.2006E
MCMr170/20.8MACON VOR/DME112.9006E
COUr337/31.8COLUMBIA VOR/DME110.2003E

 
NDB name  Hdg/Dist  Freq  Var  ID
MARSHALL062/38.037103EPUR .--. ..- .-.

Airport Services

Runway Information

Runway 10/28

Dimensions: 1800 x 60 ft. / 549 x 18 m
Surface: turf
RUNWAY 10  RUNWAY 28
Traffic pattern: leftleft
Obstructions: 25 ft. trees, 600 ft. from runwayroad

Airport Ownership and Management from official FAA records

Ownership: Privately-owned
Owner: RAYMOND L HESS
RR 2 BOX 125
HIGBEE, MO 65257
Phone 816-456-7421
Manager: RAYMOND L HESS
RR 2 BOX 125
HIGBEE, MO 65257
Phone 816-456-7421

Airport Operational Statistics

Aircraft based on the field: 4
Single engine airplanes: 4
    

Additional Remarks

OWNER DESIRES CHARTING

Instrument Procedures

There are no published instrument procedures at 69MO.

Some nearby airports with instrument procedures:

KMBY - Omar N Bradley Airport (9 nm N)
KVER - Jesse Viertel Memorial Airport (24 nm SW)
K89 - Macon-Fower Memorial Airport (25 nm N)
KMYJ - Mexico Memorial Airport (31 nm E)
KCOU - Columbia Regional Airport (31 nm S)
 
Loc | Ops | Rwys | IFR | FBO | Links
Com | Nav | Svcs | Stats | Notes

Kansas City Aviation Department
 
Area around 69MO (Hess-McKeown Airport)
 
Road maps at: MapQuest Bing Google
 
Aerial photo
No photo
 
Sectional chart

 
Airport distance calculator
Flying to Hess-McKeown Airport? Find the distance to fly.

From to 69MO

Sunrise and sunset
Times for 25-Jul-2017
 Local
(UTC-5)
 Zulu
(UTC)
Morning civil twilight05:3410:34
Sunrise06:0511:05
Sunset20:2801:28
Evening civil twilight20:5801:58

Current date and time
Zulu (UTC)  25-Jul-2017 09:45:55
Local (UTC-5)  25-Jul-2017 04:45:55
 
METAR
KVER 
24nm SW 
250935Z AUTO 00000KT 20/ A3006 RMK AO2 T0195 PWINO
KMYJ 
31nm E 
250935Z AUTO 06003KT 5SM BR CLR 18/18 A3008 RMK AO2
KCOU 
32nm S 
250854Z AUTO 07005KT 8SM CLR 21/20 A3006 RMK AO2 SLP170 T02060200 $
KMHL 
37nm W 
250935Z AUTO 07005KT 10SM CLR 20/19 A3007 RMK AO2
KJEF 
45nm S 
250853Z AUTO 00000KT 10SM CLR 21/21 A3004 RMK AO2 SLP158 T02060206 51000
KIRK 
48nm N 
250855Z AUTO 08004KT 5SM BR CLR 18/18 A3010 RMK AO2 SLP187 T01830178 55003
TAF
KCOU 
32nm S 
250520Z 2506/2606 08005KT P6SM SKC FM251800 10004KT P6SM FEW050
NOTAMs
Click for the latest NOTAMs
NOTAMs are issued by the DoD/FAA and will open in a separate window not controlled by AirNav.

 

 
 

Would you like to see your business listed on this page?

 If your business provides an interesting product or service to pilots, flight crews, aircraft, or users of the Hess-McKeown Airport, you should consider listing it here.  To start the listing process, click on the button below
 
Add a business
 

Other Pages about Hess-McKeown Airport

Update a link
 
Copyright © AirNav, LLC. All rights reserved. Privacy Policy  Contact